Time;durP1;ratioP1;P1;durP2;ratioP2;P2;SDS_P1;SDS_P2;PMS_P1;PMS_P2;Temp;Humidity;BMP_temperature;BMP_pressure;BME280_temperature;BME280_humidity;BME280_pressure;Samples;Min_cycle;Max_cycle;Signal;HPM_P1;HPM_P2
2021/12/30 00:01:22;;;;;;;11.32;3.38;;;16.60;58.00;15.50;100474.00;;;;5014405;28;20490;-68
2021/12/30 00:04:08;;;;;;;13.32;3.47;;;16.60;58.10;15.50;100461.00;;;;4992835;28;20079;-68
2021/12/30 00:06:54;;;;;;;12.25;3.28;;;16.60;58.00;15.50;100466.00;;;;4993823;28;20041;-68
2021/12/30 00:09:40;;;;;;;15.52;3.85;;;16.60;58.00;15.50;100468.00;;;;5020150;28;20041;-68
2021/12/30 00:12:27;;;;;;;12.35;3.67;;;16.60;58.00;15.50;100469.00;;;;5012768;28;20041;-68
2021/12/30 00:15:13;;;;;;;17.73;3.95;;;16.60;58.20;15.50;100486.00;;;;5006116;28;20112;-68
2021/12/30 00:17:59;;;;;;;13.80;3.10;;;16.60;57.90;15.50;100495.00;;;;5004925;28;20588;-69
2021/12/30 00:20:46;;;;;;;15.57;3.40;;;16.60;57.90;15.50;100487.00;;;;5017007;28;20143;-68
2021/12/30 00:23:32;;;;;;;12.57;3.33;;;16.60;57.90;15.50;100501.00;;;;5012372;28;20045;-68
2021/12/30 00:26:18;;;;;;;17.38;4.10;;;16.60;57.90;15.50;100503.00;;;;5014137;28;20041;-68
2021/12/30 00:29:04;;;;;;;11.02;3.63;;;16.60;57.90;15.50;100508.00;;;;5004094;28;20085;-68
2021/12/30 00:31:51;;;;;;;18.00;3.88;;;16.60;57.90;15.50;100529.00;;;;5015639;28;20029;-68
2021/12/30 00:34:37;;;;;;;15.52;3.70;;;16.60;57.90;15.50;100523.00;;;;4991047;28;20045;-68
2021/12/30 00:37:23;;;;;;;14.70;3.58;;;16.60;57.90;15.50;100527.00;;;;5007939;28;20083;-69
2021/12/30 00:40:10;;;;;;;15.82;3.67;;;16.60;57.90;15.50;100536.00;;;;5011490;28;20172;-68
2021/12/30 00:42:57;;;;;;;14.35;3.88;;;16.60;57.90;15.50;100526.00;;;;5012530;28;20053;-68
2021/12/30 00:45:43;;;;;;;12.57;3.58;;;16.60;57.90;15.60;100537.00;;;;5004976;28;20770;-68
2021/12/30 00:48:30;;;;;;;17.80;3.13;;;16.60;57.80;15.50;100543.00;;;;5003313;28;20060;-69
2021/12/30 00:51:16;;;;;;;13.50;3.33;;;16.60;57.80;15.50;100549.00;;;;4998441;28;20381;-68
2021/12/30 00:54:02;;;;;;;11.82;3.55;;;16.60;57.80;15.50;100557.00;;;;5008975;28;20395;-68
2021/12/30 00:56:49;;;;;;;15.70;3.20;;;16.60;57.80;15.50;100556.00;;;;5014330;28;20099;-68
2021/12/30 00:59:35;;;;;;;17.77;3.90;;;16.60;57.80;15.50;100557.00;;;;5008624;28;20065;-69
2021/12/30 01:02:21;;;;;;;16.20;3.65;;;16.60;57.80;15.50;100568.00;;;;5016279;28;20045;-68
2021/12/30 01:05:09;;;;;;;16.13;4.07;;;16.60;57.70;15.50;100558.00;;;;5019210;28;20092;-68
2021/12/30 01:07:56;;;;;;;15.77;3.45;;;16.60;57.70;15.50;100550.00;;;;4993186;28;20184;-68
2021/12/30 01:10:43;;;;;;;15.00;3.80;;;16.60;57.70;15.50;100566.00;;;;5004794;28;20479;-68
2021/12/30 01:13:31;;;;;;;9.40;2.65;;;16.50;57.70;15.50;100578.00;;;;4980451;28;20119;-68
2021/12/30 01:16:19;;;;;;;11.68;2.92;;;16.50;57.70;15.50;100587.00;;;;5003875;28;20037;-69
2021/12/30 01:22:06;;;;;;;15.07;3.50;;;16.50;57.80;15.50;100583.00;;;;5017164;28;20445;-69
2021/12/30 01:24:53;;;;;;;18.85;4.28;;;16.50;57.70;15.50;100583.00;;;;5020724;28;20041;-69
2021/12/30 01:27:40;;;;;;;14.50;2.92;;;16.50;57.70;15.50;100598.00;;;;4971565;28;20539;-69
2021/12/30 01:30:26;;;;;;;17.65;3.40;;;16.50;57.70;15.50;100588.00;;;;5008087;28;20037;-68
2021/12/30 01:33:12;;;;;;;11.23;2.88;;;16.50;57.70;15.50;100610.00;;;;5019307;28;20030;-68
2021/12/30 01:35:58;;;;;;;17.30;3.60;;;16.50;57.70;15.50;100618.00;;;;5020449;28;20111;-69
2021/12/30 01:38:45;;;;;;;15.73;3.63;;;16.50;57.70;15.50;100630.00;;;;5018761;28;20037;-69
2021/12/30 01:41:31;;;;;;;13.00;2.92;;;16.50;57.70;15.50;100639.00;;;;5018113;28;20336;-69
2021/12/30 01:44:19;;;;;;;17.70;3.50;;;16.50;57.70;15.50;100648.00;;;;5002860;28;20045;-69
2021/12/30 01:47:05;;;;;;;14.55;3.90;;;16.50;57.70;15.50;100641.00;;;;4999872;28;20123;-69
2021/12/30 01:49:53;;;;;;;18.23;3.50;;;16.50;57.70;15.50;100653.00;;;;5001032;28;20041;-69
2021/12/30 01:52:39;;;;;;;13.80;3.55;;;16.50;57.70;15.50;100648.00;;;;5019942;28;20398;-68
2021/12/30 01:55:25;;;;;;;14.95;3.45;;;16.50;57.70;15.50;100640.00;;;;5019248;28;20045;-68
2021/12/30 01:58:12;;;;;;;16.08;3.70;;;16.50;57.60;15.50;100649.00;;;;4993960;28;20089;-68
2021/12/30 02:00:58;;;;;;;14.13;3.72;;;16.50;57.60;15.50;100655.00;;;;5014902;28;20129;-69
2021/12/30 02:03:45;;;;;;;16.80;4.07;;;16.50;57.60;15.50;100655.00;;;;5009765;28;20112;-68
2021/12/30 02:06:31;;;;;;;12.40;3.67;;;16.50;57.60;15.50;100653.00;;;;5020076;28;20038;-69
2021/12/30 02:09:19;;;;;;;19.48;4.78;;;16.50;57.60;15.50;100650.00;;;;5017897;28;20069;-69
2021/12/30 02:12:06;;;;;;;16.15;3.92;;;16.50;57.70;15.50;100644.00;;;;4997709;28;20320;-69
2021/12/30 02:14:52;;;;;;;17.67;4.30;;;16.50;57.70;15.50;100657.00;;;;5002737;28;20073;-68
2021/12/30 02:17:39;;;;;;;15.25;4.85;;;16.50;57.70;15.50;100649.00;;;;5020740;28;20436;-68
2021/12/30 02:20:46;;;;;;;14.82;4.00;;;16.50;57.70;15.50;100635.00;;;;4990268;28;20057;-69
2021/12/30 02:23:35;;;;;;;17.50;4.63;;;16.40;57.70;15.50;100630.00;;;;5027879;28;20049;-69
2021/12/30 02:26:21;;;;;;;17.42;4.88;;;16.50;57.70;15.40;100640.00;;;;4995027;28;20095;-69
2021/12/30 02:29:07;;;;;;;15.75;4.63;;;16.40;57.60;15.40;100646.00;;;;5017119;28;20049;-69
2021/12/30 02:31:53;;;;;;;19.13;5.35;;;16.50;57.70;15.50;100642.00;;;;5014265;28;20044;-69
2021/12/30 02:34:40;;;;;;;16.20;5.22;;;16.50;57.70;15.50;100653.00;;;;5003882;28;20041;-69
2021/12/30 02:37:26;;;;;;;15.90;4.95;;;16.50;57.80;15.50;100659.00;;;;5018439;28;20065;-69
2021/12/30 02:40:12;;;;;;;15.40;4.95;;;16.40;57.80;15.50;100652.00;;;;5015959;28;20553;-69
2021/12/30 02:43:00;;;;;;;16.13;5.13;;;16.50;57.80;15.50;100666.00;;;;5018968;28;20129;-68
2021/12/30 02:45:46;;;;;;;21.73;5.57;;;16.50;57.80;15.50;100663.00;;;;5016252;28;21683;-69
2021/12/30 02:48:34;;;;;;;20.58;5.15;;;16.40;57.80;15.50;100647.00;;;;5001319;28;20056;-69
2021/12/30 02:51:21;;;;;;;14.23;4.90;;;16.50;57.90;15.40;100628.00;;;;4984024;28;20037;-69
2021/12/30 02:54:07;;;;;;;15.20;5.20;;;16.50;57.90;15.50;100620.00;;;;5004425;28;20048;-68
2021/12/30 02:56:53;;;;;;;12.82;4.47;;;16.50;57.90;15.40;100619.00;;;;5002905;28;20132;-69
2021/12/30 02:59:39;;;;;;;21.08;5.80;;;16.50;57.90;15.40;100645.00;;;;5017712;28;20499;-69
2021/12/30 03:02:25;;;;;;;17.35;6.07;;;16.40;57.90;15.40;100658.00;;;;5019230;28;20045;-69
2021/12/30 03:05:15;;;;;;;17.17;5.90;;;16.40;57.90;15.40;100657.00;;;;5018315;28;20534;-69
2021/12/30 03:08:01;;;;;;;17.05;5.25;;;16.50;58.10;15.40;100675.00;;;;5005814;28;20670;-69
2021/12/30 03:10:48;;;;;;;18.95;5.72;;;16.50;58.10;15.50;100681.00;;;;5009798;28;20041;-69
2021/12/30 03:13:40;;;;;;;16.67;6.20;;;16.50;58.10;15.50;100681.00;;;;5018108;28;20047;-69
2021/12/30 03:16:32;;;;;;;20.80;5.80;;;16.50;58.10;15.50;100684.00;;;;5016777;28;20103;-69
2021/12/30 03:19:19;;;;;;;20.67;6.20;;;16.50;58.10;15.50;100681.00;;;;4997154;28;20045;-69
2021/12/30 03:22:06;;;;;;;14.45;5.30;;;16.50;58.10;15.50;100674.00;;;;4991117;28;20120;-68
2021/12/30 03:24:53;;;;;;;17.50;5.78;;;16.40;58.00;15.50;100682.00;;;;5024261;28;20046;-69
2021/12/30 03:27:40;;;;;;;18.77;6.18;;;16.60;58.10;15.50;100669.00;;;;5014495;28;20128;-69
2021/12/30 03:30:26;;;;;;;15.32;5.82;;;16.50;58.10;15.50;100671.00;;;;5011265;28;20053;-69
2021/12/30 03:33:12;;;;;;;16.25;6.22;;;16.50;58.10;15.50;100688.00;;;;5008716;28;20051;-68
2021/12/30 03:36:00;;;;;;;19.08;5.55;;;16.50;58.10;15.50;100702.00;;;;5010176;28;20530;-69
2021/12/30 03:38:49;;;;;;;14.15;5.85;;;16.50;58.10;15.50;100702.00;;;;5023065;28;20074;-69
2021/12/30 03:41:36;;;;;;;18.40;6.18;;;16.50;58.20;15.50;100698.00;;;;5004906;28;20041;-68
2021/12/30 03:44:22;;;;;;;14.00;5.60;;;16.50;58.10;15.50;100689.00;;;;5010264;28;21719;-69
2021/12/30 03:47:13;;;;;;;18.15;5.55;;;16.50;58.10;15.50;100679.00;;;;5023537;28;20448;-68
2021/12/30 03:49:59;;;;;;;14.35;5.40;;;16.50;58.10;15.50;100691.00;;;;5006631;28;20053;-68
2021/12/30 03:52:51;;;;;;;16.48;5.63;;;16.50;58.10;15.50;100685.00;;;;5025490;28;20045;-68
2021/12/30 03:55:38;;;;;;;16.95;6.07;;;16.50;58.20;15.50;100690.00;;;;4998394;28;20475;-68
2021/12/30 03:58:24;;;;;;;13.82;5.25;;;16.50;58.10;15.50;100699.00;;;;5024389;28;20136;-68
2021/12/30 04:01:11;;;;;;;19.23;6.22;;;16.50;58.20;15.50;100693.00;;;;5024363;28;20040;-68
2021/12/30 04:03:58;;;;;;;18.27;5.93;;;16.50;58.10;15.50;100690.00;;;;5014066;28;20611;-68
2021/12/30 04:06:44;;;;;;;16.30;6.68;;;16.50;58.10;15.50;100691.00;;;;5002109;28;20116;-68
2021/12/30 04:09:30;;;;;;;20.00;5.90;;;16.50;58.10;15.50;100686.00;;;;5017904;28;20050;-69
2021/12/30 04:12:18;;;;;;;18.63;5.68;;;16.50;58.20;15.60;100690.00;;;;5018787;28;20041;-68
2021/12/30 04:15:05;;;;;;;;;;;16.50;58.20;15.50;100683.00;;;;4994931;28;20045;-69
2021/12/30 04:17:51;;;;;;;14.48;5.22;;;16.60;58.00;15.50;100681.00;;;;5006649;28;19917;-69
2021/12/30 04:20:37;;;;;;;15.85;6.30;;;16.60;58.00;15.50;100672.00;;;;5027946;28;20041;-69
2021/12/30 04:23:24;;;;;;;19.10;6.80;;;16.60;58.10;15.50;100672.00;;;;5018341;28;20434;-69
2021/12/30 04:26:10;;;;;;;14.32;6.22;;;16.50;58.40;15.50;100681.00;;;;4998232;28;20037;-69
2021/12/30 04:28:57;;;;;;;16.15;6.43;;;16.50;58.70;15.50;100691.00;;;;5024941;28;20099;-69
2021/12/30 04:31:43;;;;;;;19.75;6.97;;;16.50;58.70;15.50;100685.00;;;;5019408;28;20038;-69
2021/12/30 04:34:29;;;;;;;18.05;5.47;;;16.50;58.70;15.60;100690.00;;;;5025825;28;20463;-69
2021/12/30 04:37:15;;;;;;;20.92;6.63;;;16.50;58.90;15.60;100674.00;;;;5006994;28;20076;-69
2021/12/30 04:40:04;;;;;;;19.75;7.13;;;16.50;59.00;15.60;100670.00;;;;5012518;28;20053;-68
2021/12/30 04:42:50;;;;;;;15.90;6.57;;;16.50;58.80;15.60;100690.00;;;;5009657;28;20124;-69
2021/12/30 04:45:37;;;;;;;17.13;6.22;;;16.50;58.80;15.60;100701.00;;;;5026135;28;20077;-68
2021/12/30 04:48:23;;;;;;;18.88;6.50;;;16.60;58.80;15.60;100681.00;;;;5011541;28;20045;-68
2021/12/30 04:51:09;;;;;;;15.82;6.28;;;16.60;58.80;15.60;100686.00;;;;5013108;28;20041;-68
2021/12/30 04:53:55;;;;;;;16.30;6.47;;;16.60;58.80;15.60;100683.00;;;;5025848;28;20483;-68
2021/12/30 04:56:41;;;;;;;12.63;5.93;;;16.60;58.70;15.60;100682.00;;;;5024277;28;20479;-69
2021/12/30 04:59:28;;;;;;;15.05;6.43;;;16.60;58.70;15.60;100675.00;;;;4998408;28;20067;-68
2021/12/30 05:02:14;;;;;;;11.98;6.30;;;16.60;58.90;15.60;100672.00;;;;5023986;28;20049;-68
2021/12/30 05:05:00;;;;;;;12.18;6.07;;;16.60;58.70;15.60;100680.00;;;;5024435;28;20094;-68
2021/12/30 05:07:46;;;;;;;15.65;6.00;;;16.60;58.70;15.60;100677.00;;;;5024806;28;20128;-68
2021/12/30 05:10:33;;;;;;;19.48;6.57;;;16.60;58.70;15.60;100690.00;;;;5024269;28;20422;-68
2021/12/30 05:13:19;;;;;;;14.52;6.47;;;16.60;58.70;15.60;100696.00;;;;5011134;28;20041;-68
2021/12/30 05:16:05;;;;;;;12.63;6.32;;;16.70;58.70;15.60;100703.00;;;;5011258;28;20090;-68
2021/12/30 05:18:56;;;;;;;15.55;6.32;;;16.70;58.70;15.60;100699.00;;;;5031365;28;20196;-68
2021/12/30 05:21:42;;;;;;;15.18;6.22;;;16.70;58.70;15.60;100717.00;;;;5018722;28;20420;-68
2021/12/30 05:24:28;;;;;;;14.40;6.45;;;16.70;58.60;15.70;100694.00;;;;5022060;28;20044;-69
2021/12/30 05:27:14;;;;;;;17.73;7.60;;;16.70;58.70;15.70;100672.00;;;;5023678;28;20064;-68
2021/12/30 05:30:00;;;;;;;12.45;5.82;;;16.70;58.70;15.70;100684.00;;;;5021794;28;20132;-69
2021/12/30 05:32:47;;;;;;;14.20;6.22;;;16.70;58.70;15.60;100686.00;;;;5025410;28;20046;-68
2021/12/30 05:35:33;;;;;;;13.32;6.20;;;16.70;58.50;15.70;100683.00;;;;5017632;28;20038;-68
2021/12/30 05:38:19;;;;;;;16.98;6.55;;;16.70;59.20;15.70;100684.00;;;;4986343;28;21109;-68
2021/12/30 05:41:05;;;;;;;11.95;6.68;;;16.70;58.50;15.70;100682.00;;;;5025922;28;20041;-68
2021/12/30 05:43:52;;;;;;;13.75;6.00;;;16.70;58.50;15.70;100688.00;;;;5020629;28;20343;-68
2021/12/30 05:46:38;;;;;;;10.85;5.45;;;16.70;58.50;15.70;100687.00;;;;5025367;28;20091;-68
2021/12/30 05:49:24;;;;;;;14.45;7.00;;;16.70;58.50;15.70;100686.00;;;;5021195;28;20053;-68
2021/12/30 05:52:11;;;;;;;13.50;6.53;;;16.80;58.60;15.70;100699.00;;;;5021869;28;20045;-69
2021/12/30 05:54:57;;;;;;;10.32;5.10;;;16.70;58.50;15.70;100692.00;;;;5022423;28;20041;-68
2021/12/30 05:57:43;;;;;;;9.35;5.43;;;16.70;58.50;15.70;100703.00;;;;5027040;28;20042;-68
2021/12/30 06:00:30;;;;;;;9.65;5.60;;;16.70;58.50;15.70;100709.00;;;;5028033;28;20129;-68
2021/12/30 06:03:19;;;;;;;9.80;5.45;;;16.70;58.60;15.70;100703.00;;;;4999698;28;20103;-68
2021/12/30 06:06:05;;;;;;;12.50;6.13;;;16.70;58.50;15.70;100708.00;;;;4997808;28;20064;-69
2021/12/30 06:08:53;;;;;;;9.73;5.30;;;16.70;58.50;15.70;100711.00;;;;5023109;28;20103;-68
2021/12/30 06:11:39;;;;;;;10.90;5.07;;;16.70;58.50;15.70;100712.00;;;;4995544;28;20041;-69
2021/12/30 06:14:25;;;;;;;12.98;5.40;;;16.80;58.60;15.70;100706.00;;;;5027527;28;20037;-68
2021/12/30 06:17:13;;;;;;;8.43;4.55;;;16.70;58.50;15.70;100696.00;;;;5027737;28;22705;-68
2021/12/30 06:19:59;;;;;;;9.07;5.07;;;16.70;58.70;15.70;100697.00;;;;5029482;28;20045;-68
2021/12/30 06:22:46;;;;;;;9.57;4.72;;;16.70;58.50;15.70;100696.00;;;;5027707;28;20052;-68
2021/12/30 06:25:32;;;;;;;7.68;4.25;;;16.80;58.60;15.70;100689.00;;;;5027166;28;20041;-68
2021/12/30 06:28:18;;;;;;;9.10;4.53;;;16.70;58.50;15.70;100681.00;;;;5029566;28;20459;-68
2021/12/30 06:31:04;;;;;;;6.68;4.43;;;16.70;58.50;15.70;100691.00;;;;5026115;28;20455;-68
2021/12/30 06:33:50;;;;;;;7.45;4.30;;;16.70;58.50;15.70;100699.00;;;;5026599;28;20156;-69
2021/12/30 06:36:37;;;;;;;9.45;4.13;;;16.70;58.50;15.70;100692.00;;;;5031111;28;20486;-69
2021/12/30 06:39:23;;;;;;;7.30;3.80;;;16.80;58.60;15.70;100703.00;;;;5006026;28;20083;-68
2021/12/30 06:42:09;;;;;;;5.40;3.70;;;16.80;58.60;15.70;100691.00;;;;4999912;28;20049;-68
2021/12/30 06:44:55;;;;;;;6.18;3.95;;;16.80;58.60;15.70;100692.00;;;;5029395;28;20053;-68
2021/12/30 06:47:44;;;;;;;5.43;3.53;;;16.80;58.60;15.70;100697.00;;;;5011253;28;20053;-68
2021/12/30 06:50:32;;;;;;;6.93;4.13;;;16.80;58.60;15.70;100696.00;;;;5024342;28;20554;-69
2021/12/30 06:53:20;;;;;;;6.72;3.50;;;16.80;58.70;15.70;100687.00;;;;5005717;28;20041;-68
2021/12/30 06:56:06;;;;;;;6.57;3.78;;;16.70;58.60;15.70;100674.00;;;;5020235;28;20522;-69
2021/12/30 06:58:52;;;;;;;5.28;3.60;;;16.80;58.60;15.70;100683.00;;;;5005584;28;20128;-68
2021/12/30 07:01:43;;;;;;;4.20;3.30;;;16.80;58.70;15.70;100681.00;;;;5005820;28;20053;-69
2021/12/30 07:04:29;;;;;;;4.97;3.60;;;16.80;58.80;15.70;100693.00;;;;5017484;28;20045;-68
2021/12/30 07:07:15;;;;;;;4.43;2.83;;;16.80;58.80;15.70;100695.00;;;;5022963;28;20521;-69
2021/12/30 07:10:02;;;;;;;3.72;2.70;;;16.80;58.80;15.70;100695.00;;;;5011161;28;20487;-69
2021/12/30 07:12:49;;;;;;;7.28;3.42;;;16.80;58.90;15.70;100699.00;;;;5024523;28;20462;-68
2021/12/30 07:15:35;;;;;;;4.35;3.00;;;16.80;58.90;15.70;100697.00;;;;5027445;28;20050;-69
2021/12/30 07:18:21;;;;;;;5.47;2.97;;;16.80;58.80;15.80;100695.00;;;;5021100;28;20041;-69
2021/12/30 07:21:07;;;;;;;4.40;2.92;;;16.80;58.90;15.80;100701.00;;;;5005788;28;20045;-69
2021/12/30 07:23:54;;;;;;;5.68;2.97;;;16.80;58.90;15.80;100699.00;;;;5004698;28;20037;-70
2021/12/30 07:26:40;;;;;;;4.40;2.58;;;16.80;58.90;15.80;100698.00;;;;5018425;28;20037;-70
2021/12/30 07:29:26;;;;;;;3.55;2.58;;;16.80;58.80;15.80;100703.00;;;;5023682;28;20042;-70
2021/12/30 07:32:12;;;;;;;3.65;2.92;;;16.80;58.90;15.80;100702.00;;;;5024994;28;20123;-70
2021/12/30 07:34:58;;;;;;;4.13;2.72;;;16.80;58.90;15.80;100719.00;;;;5022420;28;20042;-70
2021/12/30 07:37:46;;;;;;;3.42;2.58;;;16.80;59.20;15.80;100715.00;;;;5016381;28;20049;-70
2021/12/30 07:40:32;;;;;;;4.53;2.42;;;16.80;58.80;15.80;100724.00;;;;5012326;28;20045;-68
2021/12/30 07:43:18;;;;;;;6.45;3.17;;;16.80;58.90;15.80;100723.00;;;;5010794;28;20049;-68
2021/12/30 07:46:06;;;;;;;4.07;2.45;;;16.80;59.00;15.80;100726.00;;;;5021258;28;20056;-68
2021/12/30 07:48:52;;;;;;;;;;;16.80;59.00;15.80;100730.00;;;;5008035;28;20143;-68
2021/12/30 07:51:38;;;;;;;4.47;2.10;;;16.90;58.90;15.80;100737.00;;;;5025224;28;19936;-69
2021/12/30 07:54:25;;;;;;;3.50;2.10;;;16.90;58.90;15.80;100738.00;;;;5003329;28;20099;-68
2021/12/30 07:57:12;;;;;;;2.83;2.53;;;16.90;58.80;15.80;100736.00;;;;5019729;28;20034;-69
2021/12/30 07:59:59;;;;;;;4.18;2.72;;;16.80;58.80;15.80;100736.00;;;;5007134;28;20041;-68
2021/12/30 08:02:45;;;;;;;3.90;2.10;;;16.90;59.00;15.80;100741.00;;;;4994483;28;20250;-68
2021/12/30 08:05:31;;;;;;;2.95;2.13;;;16.80;58.90;15.80;100737.00;;;;5014885;28;20049;-68
2021/12/30 08:08:17;;;;;;;2.03;1.83;;;16.80;58.90;15.80;100736.00;;;;5005481;28;20364;-68
2021/12/30 08:11:03;;;;;;;3.17;1.92;;;16.90;59.00;15.80;100740.00;;;;5010894;28;20460;-69
2021/12/30 08:13:50;;;;;;;2.45;2.13;;;16.80;58.90;15.80;100746.00;;;;5023548;28;20063;-69
2021/12/30 08:16:36;;;;;;;3.00;1.65;;;16.90;58.90;15.80;100738.00;;;;5018524;28;20041;-69
2021/12/30 08:19:22;;;;;;;3.00;1.65;;;16.90;59.00;15.80;100736.00;;;;5015737;28;21979;-68
2021/12/30 08:22:08;;;;;;;1.90;1.30;;;16.90;59.00;15.80;100742.00;;;;5009567;28;20054;-69
2021/12/30 08:24:54;;;;;;;1.73;1.42;;;16.90;59.70;15.80;100739.00;;;;5000824;28;20042;-69
2021/12/30 08:27:41;;;;;;;1.55;1.30;;;16.90;59.70;15.80;100734.00;;;;5019316;28;20517;-69
2021/12/30 08:30:27;;;;;;;1.87;1.30;;;16.90;59.80;15.80;100739.00;;;;5021057;28;20126;-69
2021/12/30 08:33:14;;;;;;;0.90;0.70;;;16.90;59.60;15.80;100741.00;;;;5023412;28;20473;-69
2021/12/30 08:36:00;;;;;;;1.48;1.35;;;16.90;59.90;15.80;100744.00;;;;5010900;28;20176;-69
2021/12/30 08:38:46;;;;;;;0.98;0.82;;;16.90;60.00;15.80;100742.00;;;;5023691;28;20041;-69
2021/12/30 08:41:32;;;;;;;2.00;1.38;;;16.90;59.80;15.80;100747.00;;;;5022355;28;20116;-69
2021/12/30 08:44:18;;;;;;;2.35;1.15;;;16.90;60.30;15.90;100751.00;;;;5020770;28;20095;-68
2021/12/30 08:47:05;;;;;;;1.27;1.17;;;16.90;60.40;15.80;100754.00;;;;5020848;28;20342;-68
2021/12/30 08:49:53;;;;;;;1.88;1.65;;;16.90;60.80;15.80;100760.00;;;;5024201;28;20537;-69
2021/12/30 08:52:39;;;;;;;2.92;1.88;;;16.90;61.60;15.80;100749.00;;;;5020216;28;20176;-69
2021/12/30 08:55:26;;;;;;;2.70;1.75;;;16.90;62.10;15.80;100762.00;;;;5015024;28;20033;-69
2021/12/30 08:58:12;;;;;;;3.35;2.15;;;16.90;62.20;15.80;100760.00;;;;5003346;28;20049;-69
2021/12/30 09:00:58;;;;;;;2.75;1.95;;;16.90;62.00;15.90;100763.00;;;;5013972;28;20410;-69
2021/12/30 09:03:44;;;;;;;4.57;2.78;;;16.90;61.60;15.90;100770.00;;;;5007588;28;20120;-69
2021/12/30 09:06:31;;;;;;;4.75;3.45;;;16.90;62.00;15.90;100768.00;;;;5002760;28;20041;-69
2021/12/30 09:09:17;;;;;;;4.93;3.08;;;16.90;62.20;15.90;100775.00;;;;5018000;28;20107;-69
2021/12/30 09:12:04;;;;;;;4.00;3.05;;;16.80;62.10;15.90;100773.00;;;;5011000;28;20496;-69
2021/12/30 09:14:51;;;;;;;4.03;3.47;;;16.90;61.80;15.90;100773.00;;;;5017783;28;20475;-69
2021/12/30 09:17:38;;;;;;;4.43;3.65;;;16.90;62.10;15.90;100781.00;;;;4994227;28;20103;-69
2021/12/30 09:20:25;;;;;;;4.93;3.85;;;16.90;62.20;15.90;100770.00;;;;5025675;28;20059;-69
2021/12/30 09:23:12;;;;;;;4.45;3.58;;;16.90;62.00;15.90;100769.00;;;;5005587;28;20383;-69
2021/12/30 09:25:58;;;;;;;3.88;3.47;;;16.90;61.90;15.90;100781.00;;;;5026476;28;20163;-69
2021/12/30 09:28:46;;;;;;;8.38;4.75;;;16.90;61.50;15.90;100790.00;;;;5015141;28;20491;-69
2021/12/30 09:31:32;;;;;;;;;;;16.90;62.10;15.90;100792.00;;;;5015846;28;20372;-68
2021/12/30 09:34:20;;;;;;;3.78;3.38;;;17.00;61.40;15.90;100789.00;;;;5019008;28;19995;-68
2021/12/30 09:37:09;;;;;;;4.13;3.72;;;17.00;61.40;15.90;100787.00;;;;4968427;28;20045;-69
2021/12/30 09:39:55;;;;;;;5.95;4.63;;;17.00;61.20;15.90;100793.00;;;;5003754;28;20042;-69
2021/12/30 09:42:47;;;;;;;7.30;5.32;;;17.00;61.60;15.90;100795.00;;;;5017396;28;20096;-68
2021/12/30 09:45:37;;;;;;;7.60;5.25;;;17.00;62.10;15.90;100797.00;;;;5001190;28;20498;-68
2021/12/30 09:48:25;;;;;;;6.40;4.90;;;17.00;62.20;15.90;100796.00;;;;4989519;28;20108;-68
2021/12/30 09:51:12;;;;;;;6.35;4.85;;;17.00;62.30;15.90;100796.00;;;;5030936;28;20103;-68
2021/12/30 09:53:58;;;;;;;5.80;3.97;;;17.00;62.00;15.90;100792.00;;;;4997530;28;20045;-68
2021/12/30 09:56:45;;;;;;;8.77;4.93;;;17.00;61.80;16.00;100796.00;;;;5024372;28;20053;-69
2021/12/30 09:59:32;;;;;;;9.20;4.55;;;17.00;62.20;16.00;100801.00;;;;5008101;28;20526;-70
2021/12/30 10:02:18;;;;;;;8.13;4.32;;;17.00;62.30;16.00;100797.00;;;;5026786;28;20402;-70
2021/12/30 10:05:13;;;;;;;7.25;4.35;;;17.00;62.00;16.10;100794.00;;;;5010033;28;20059;-71
2021/12/30 10:08:23;;;;;;;7.25;4.32;;;17.10;62.50;16.10;100802.00;;;;5008186;28;20076;-71
2021/12/30 10:11:13;;;;;;;5.32;3.60;;;17.10;62.60;16.10;100791.00;;;;5027040;28;20091;-71
2021/12/30 10:14:00;;;;;;;5.78;3.60;;;17.10;62.40;16.10;100805.00;;;;4981989;28;20049;-70
2021/12/30 10:16:46;;;;;;;4.60;3.22;;;17.10;62.40;16.20;100811.00;;;;4993752;28;20045;-70
2021/12/30 10:19:32;;;;;;;5.90;3.05;;;17.20;62.50;16.20;100809.00;;;;5007050;28;20041;-71
2021/12/30 10:22:22;;;;;;;3.78;3.28;;;17.20;62.50;16.20;100802.00;;;;5024375;28;20126;-70
2021/12/30 10:25:38;;;;;;;4.93;2.72;;;17.20;62.40;16.20;100805.00;;;;5015278;28;20410;-71
2021/12/30 10:28:33;;;;;;;4.20;3.00;;;17.20;62.50;16.20;100805.00;;;;5004504;28;20041;-71
2021/12/30 10:31:25;;;;;;;3.20;2.55;;;17.20;62.50;16.20;100805.00;;;;5022585;28;20041;-71
2021/12/30 10:34:12;;;;;;;3.45;2.67;;;17.30;62.50;16.20;100821.00;;;;5001947;28;20034;-71
2021/12/30 10:36:58;;;;;;;3.88;2.92;;;17.30;62.20;16.20;100813.00;;;;4994140;28;20040;-71
2021/12/30 10:39:44;;;;;;;3.35;2.63;;;17.30;62.60;16.20;100800.00;;;;5010108;28;20037;-71
2021/12/30 10:42:32;;;;;;;4.47;2.75;;;17.30;62.50;16.20;100800.00;;;;5024747;28;20052;-71
2021/12/30 10:45:20;;;;;;;3.05;1.85;;;17.30;62.50;16.20;100813.00;;;;5010729;28;20484;-72
2021/12/30 10:48:09;;;;;;;3.10;2.20;;;17.30;62.50;16.20;100816.00;;;;5022391;28;20057;-71
2021/12/30 10:51:15;;;;;;;3.03;2.20;;;17.20;62.50;16.20;100819.00;;;;5024827;28;20041;-71
2021/12/30 10:54:22;;;;;;;6.22;2.13;;;17.20;62.60;16.20;100820.00;;;;5006603;28;20041;-70
2021/12/30 10:57:10;;;;;;;3.08;1.80;;;17.20;62.70;16.20;100808.00;;;;5009489;28;20041;-69
2021/12/30 10:59:56;;;;;;;4.03;2.40;;;17.20;62.10;16.20;100812.00;;;;4972748;28;20129;-70
2021/12/30 11:02:42;;;;;;;2.17;1.65;;;17.20;62.40;16.20;100813.00;;;;4982381;28;20371;-69
2021/12/30 11:05:28;;;;;;;2.20;1.80;;;17.20;62.50;16.20;100817.00;;;;4981370;28;20475;-69
2021/12/30 11:08:26;;;;;;;2.70;1.58;;;17.20;62.50;16.20;100830.00;;;;4977022;28;20050;-69
2021/12/30 11:11:28;;;;;;;2.55;1.63;;;17.20;62.80;16.20;100827.00;;;;5004124;28;20038;-70
2021/12/30 11:14:24;;;;;;;3.03;1.65;;;17.20;62.80;16.20;100831.00;;;;4999562;28;20483;-69
2021/12/30 11:17:21;;;;;;;2.92;1.52;;;17.20;62.60;16.20;100831.00;;;;4980669;28;20435;-69
2021/12/30 11:20:10;;;;;;;2.00;1.58;;;17.20;62.90;16.20;100824.00;;;;4999208;28;20049;-69
2021/12/30 11:22:56;;;;;;;3.10;1.60;;;17.20;62.70;16.20;100833.00;;;;4986531;28;20117;-70
2021/12/30 11:25:43;;;;;;;2.35;1.60;;;17.60;62.90;16.20;100844.00;;;;4959843;28;20480;-71
2021/12/30 11:28:29;;;;;;;3.80;1.80;;;17.20;62.60;16.20;100837.00;;;;4978053;28;20052;-70
2021/12/30 11:31:15;;;;;;;2.20;1.48;;;17.20;62.50;16.20;100845.00;;;;4993124;28;20484;-70
2021/12/30 11:34:02;;;;;;;2.10;1.35;;;17.20;62.70;16.20;100837.00;;;;4960179;28;20199;-70
2021/12/30 11:36:48;;;;;;;1.88;1.70;;;17.20;62.50;16.20;100835.00;;;;4973836;28;20152;-70
2021/12/30 11:39:35;;;;;;;3.90;2.05;;;17.20;62.60;16.20;100835.00;;;;4982015;28;20046;-70
2021/12/30 11:42:35;;;;;;;5.00;2.10;;;17.20;62.70;16.20;100827.00;;;;4975026;28;20068;-73
2021/12/30 11:45:39;;;;;;;4.93;2.78;;;17.20;62.70;16.20;100839.00;;;;4995256;28;20042;-72
2021/12/30 11:48:38;;;;;;;2.22;1.83;;;17.20;62.80;16.20;100837.00;;;;4980223;28;20076;-84
2021/12/30 11:51:24;;;;;;;3.40;2.33;;;17.20;62.80;16.20;100835.00;;;;4986051;28;20434;-71
2021/12/30 11:54:39;;;;;;;3.78;2.20;;;17.20;63.40;16.20;100830.00;;;;4977785;28;20033;-70
2021/12/30 11:57:32;;;;;;;4.88;2.47;;;17.20;62.60;16.20;100829.00;;;;4993332;28;20045;-70
2021/12/30 12:00:37;;;;;;;3.58;2.55;;;17.20;62.80;16.20;100836.00;;;;5007177;28;20048;-70
2021/12/30 12:03:34;;;;;;;6.28;3.30;;;17.20;62.90;16.20;100847.00;;;;5028593;28;20071;-70
2021/12/30 12:06:38;;;;;;;5.78;3.30;;;17.20;62.90;16.20;100849.00;;;;5006423;28;20041;-70
2021/12/30 12:09:29;;;;;;;5.20;3.08;;;17.20;62.80;16.20;100856.00;;;;4999710;28;20049;-70
2021/12/30 12:12:32;;;;;;;5.55;3.30;;;17.20;62.70;16.20;100833.00;;;;5025169;28;20095;-71
2021/12/30 12:15:18;;;;;;;7.03;3.60;;;17.20;62.90;16.20;100849.00;;;;4992189;28;20652;-70
2021/12/30 12:18:11;;;;;;;6.43;3.38;;;17.20;62.60;16.20;100837.00;;;;5026555;28;20042;-70